Goshen, Canada
Current Conditions -  °F | °C
As of 9:00 AM on Sunday 23 Nov 2014 (Local Time) from CYPD Reporting Station
Overcast Overcast  
Wind Chill: 30°   Ceiling: 2100
Heat Index: 39°   Visibility: 9mi
Dew Point: 32°   Wind: 18mph
Humidity: 75%   Direction: 270°W
Pressure: 29.88"   Gusts: 31mph
Location:  45.38°N, 61.98°W
Report Text: CYPD 231300Z AUTO 27016G27KT 9SM BKN021 BKN028 OVC041 04/M00 A2988 RMK SLP122
Loading
Personal Weather Stations






























Interactive Weather Map New forecast layout! Learn more

10-Day Weather Forecast

Advertisements
Track Severe Weather on mobile